sensor_id;sensor_type;location;lat;lon;timestamp;temperature;humidity
23124;DHT22;11731;48.592;8.858;2022-10-22T00:01:48;15.80;99.90
23124;DHT22;11731;48.592;8.858;2022-10-22T00:04:15;15.60;99.90
23124;DHT22;11731;48.592;8.858;2022-10-22T00:06:42;15.60;99.90
23124;DHT22;11731;48.592;8.858;2022-10-22T00:09:09;15.60;99.90
23124;DHT22;11731;48.592;8.858;2022-10-22T00:11:36;15.60;99.90
23124;DHT22;11731;48.592;8.858;2022-10-22T00:14:03;15.30;99.90
23124;DHT22;11731;48.592;8.858;2022-10-22T00:16:30;15.20;99.90
23124;DHT22;11731;48.592;8.858;2022-10-22T00:18:59;15.10;99.90
23124;DHT22;11731;48.592;8.858;2022-10-22T00:21:26;14.90;99.90
23124;DHT22;11731;48.592;8.858;2022-10-22T00:23:53;14.90;99.90
23124;DHT22;11731;48.592;8.858;2022-10-22T00:26:20;14.90;99.90
23124;DHT22;11731;48.592;8.858;2022-10-22T00:28:47;15.00;99.90
23124;DHT22;11731;48.592;8.858;2022-10-22T00:31:14;15.20;99.90
23124;DHT22;11731;48.592;8.858;2022-10-22T00:33:41;15.20;99.90
23124;DHT22;11731;48.592;8.858;2022-10-22T00:36:09;15.30;99.90
23124;DHT22;11731;48.592;8.858;2022-10-22T00:38:37;15.40;99.90
23124;DHT22;11731;48.592;8.858;2022-10-22T00:41:04;15.40;99.90
23124;DHT22;11731;48.592;8.858;2022-10-22T00:43:31;15.30;99.90
23124;DHT22;11731;48.592;8.858;2022-10-22T00:45:58;15.40;99.90
23124;DHT22;11731;48.592;8.858;2022-10-22T00:48:26;15.60;99.90
23124;DHT22;11731;48.592;8.858;2022-10-22T00:50:57;15.80;99.90
23124;DHT22;11731;48.592;8.858;2022-10-22T00:53:29;16.00;99.90
23124;DHT22;11731;48.592;8.858;2022-10-22T00:55:57;16.00;99.90
23124;DHT22;11731;48.592;8.858;2022-10-22T00:58:27;16.00;99.90
23124;DHT22;11731;48.592;8.858;2022-10-22T01:00:56;16.10;99.90
23124;DHT22;11731;48.592;8.858;2022-10-22T01:03:23;16.20;99.90
23124;DHT22;11731;48.592;8.858;2022-10-22T01:05:55;15.90;99.90
23124;DHT22;11731;48.592;8.858;2022-10-22T01:08:27;15.70;99.90
23124;DHT22;11731;48.592;8.858;2022-10-22T01:11:05;15.60;99.90
23124;DHT22;11731;48.592;8.858;2022-10-22T01:13:42;15.60;99.90
23124;DHT22;11731;48.592;8.858;2022-10-22T01:16:18;15.80;99.90
23124;DHT22;11731;48.592;8.858;2022-10-22T01:18:53;15.80;99.90
23124;DHT22;11731;48.592;8.858;2022-10-22T01:21:26;15.60;99.90
23124;DHT22;11731;48.592;8.858;2022-10-22T01:24:27;15.10;99.90
23124;DHT22;11731;48.592;8.858;2022-10-22T01:27:10;15.10;99.90
23124;DHT22;11731;48.592;8.858;2022-10-22T01:29:42;15.30;99.90
23124;DHT22;11731;48.592;8.858;2022-10-22T01:32:15;15.50;99.90
23124;DHT22;11731;48.592;8.858;2022-10-22T01:34:45;15.70;99.90
23124;DHT22;11731;48.592;8.858;2022-10-22T01:37:14;15.70;99.90
23124;DHT22;11731;48.592;8.858;2022-10-22T01:39:44;15.70;99.90
23124;DHT22;11731;48.592;8.858;2022-10-22T01:42:12;15.70;99.90
23124;DHT22;11731;48.592;8.858;2022-10-22T01:44:41;15.60;99.90
23124;DHT22;11731;48.592;8.858;2022-10-22T01:47:16;15.40;99.90
23124;DHT22;11731;48.592;8.858;2022-10-22T01:50:07;15.40;99.90
23124;DHT22;11731;48.592;8.858;2022-10-22T01:52:47;15.30;99.90
23124;DHT22;11731;48.592;8.858;2022-10-22T01:55:23;15.30;99.90
23124;DHT22;11731;48.592;8.858;2022-10-22T01:58:00;15.50;99.90
23124;DHT22;11731;48.592;8.858;2022-10-22T02:00:30;15.50;99.90
23124;DHT22;11731;48.592;8.858;2022-10-22T02:03:01;15.50;99.90
23124;DHT22;11731;48.592;8.858;2022-10-22T02:05:35;15.20;99.90
23124;DHT22;11731;48.592;8.858;2022-10-22T02:08:07;15.20;99.90
23124;DHT22;11731;48.592;8.858;2022-10-22T02:10:36;15.30;99.90
23124;DHT22;11731;48.592;8.858;2022-10-22T02:13:07;15.40;99.90
23124;DHT22;11731;48.592;8.858;2022-10-22T02:15:37;15.50;99.90
23124;DHT22;11731;48.592;8.858;2022-10-22T02:18:07;15.50;99.90
23124;DHT22;11731;48.592;8.858;2022-10-22T02:20:36;15.40;99.90
23124;DHT22;11731;48.592;8.858;2022-10-22T02:23:04;15.50;99.90
23124;DHT22;11731;48.592;8.858;2022-10-22T02:25:34;15.50;99.90
23124;DHT22;11731;48.592;8.858;2022-10-22T02:28:08;15.50;99.90
23124;DHT22;11731;48.592;8.858;2022-10-22T02:30:41;15.70;99.90
23124;DHT22;11731;48.592;8.858;2022-10-22T02:33:13;15.70;99.90
23124;DHT22;11731;48.592;8.858;2022-10-22T02:35:42;15.90;99.90
23124;DHT22;11731;48.592;8.858;2022-10-22T02:38:11;16.00;99.90
23124;DHT22;11731;48.592;8.858;2022-10-22T02:40:39;16.10;99.90
23124;DHT22;11731;48.592;8.858;2022-10-22T02:43:06;16.00;99.90
23124;DHT22;11731;48.592;8.858;2022-10-22T02:45:33;15.90;99.90
23124;DHT22;11731;48.592;8.858;2022-10-22T02:48:01;16.00;99.90
23124;DHT22;11731;48.592;8.858;2022-10-22T02:50:28;16.00;99.90
23124;DHT22;11731;48.592;8.858;2022-10-22T02:52:55;16.10;99.90
23124;DHT22;11731;48.592;8.858;2022-10-22T02:55:22;16.10;99.90
23124;DHT22;11731;48.592;8.858;2022-10-22T02:57:49;16.00;99.90
23124;DHT22;11731;48.592;8.858;2022-10-22T03:00:16;16.00;99.90
23124;DHT22;11731;48.592;8.858;2022-10-22T03:02:43;15.60;99.90
23124;DHT22;11731;48.592;8.858;2022-10-22T03:05:12;15.50;99.90
23124;DHT22;11731;48.592;8.858;2022-10-22T03:07:38;15.10;99.90
23124;DHT22;11731;48.592;8.858;2022-10-22T03:10:06;15.00;99.90
23124;DHT22;11731;48.592;8.858;2022-10-22T03:12:33;14.90;99.90
23124;DHT22;11731;48.592;8.858;2022-10-22T03:15:00;14.90;99.90
23124;DHT22;11731;48.592;8.858;2022-10-22T03:17:27;14.90;99.90
23124;DHT22;11731;48.592;8.858;2022-10-22T03:19:53;15.10;99.90
23124;DHT22;11731;48.592;8.858;2022-10-22T03:22:25;15.20;99.90
23124;DHT22;11731;48.592;8.858;2022-10-22T03:24:54;15.30;99.90
23124;DHT22;11731;48.592;8.858;2022-10-22T03:27:24;15.40;99.90
23124;DHT22;11731;48.592;8.858;2022-10-22T03:29:53;15.50;99.90
23124;DHT22;11731;48.592;8.858;2022-10-22T03:32:20;15.80;99.90
23124;DHT22;11731;48.592;8.858;2022-10-22T03:34:47;15.90;99.90
23124;DHT22;11731;48.592;8.858;2022-10-22T03:37:14;15.60;99.90
23124;DHT22;11731;48.592;8.858;2022-10-22T03:39:42;15.60;99.90
23124;DHT22;11731;48.592;8.858;2022-10-22T03:42:10;15.50;99.90
23124;DHT22;11731;48.592;8.858;2022-10-22T03:44:38;15.60;99.90
23124;DHT22;11731;48.592;8.858;2022-10-22T03:47:06;15.50;99.90
23124;DHT22;11731;48.592;8.858;2022-10-22T03:49:33;15.50;99.90
23124;DHT22;11731;48.592;8.858;2022-10-22T03:52:04;15.50;99.90
23124;DHT22;11731;48.592;8.858;2022-10-22T03:54:31;15.60;99.90
23124;DHT22;11731;48.592;8.858;2022-10-22T03:56:59;15.70;99.90
23124;DHT22;11731;48.592;8.858;2022-10-22T03:59:26;15.70;99.90
23124;DHT22;11731;48.592;8.858;2022-10-22T04:01:53;15.80;99.90
23124;DHT22;11731;48.592;8.858;2022-10-22T04:04:20;15.80;99.90
23124;DHT22;11731;48.592;8.858;2022-10-22T04:06:47;15.60;99.90
23124;DHT22;11731;48.592;8.858;2022-10-22T04:09:13;15.50;99.90
23124;DHT22;11731;48.592;8.858;2022-10-22T04:11:40;15.50;99.90
23124;DHT22;11731;48.592;8.858;2022-10-22T04:14:09;15.60;99.90
23124;DHT22;11731;48.592;8.858;2022-10-22T04:16:38;15.50;99.90
23124;DHT22;11731;48.592;8.858;2022-10-22T04:19:05;15.50;99.90
23124;DHT22;11731;48.592;8.858;2022-10-22T04:21:33;15.60;99.90
23124;DHT22;11731;48.592;8.858;2022-10-22T04:24:00;15.50;99.90
23124;DHT22;11731;48.592;8.858;2022-10-22T04:26:27;15.10;99.90
23124;DHT22;11731;48.592;8.858;2022-10-22T04:28:54;15.10;99.90
23124;DHT22;11731;48.592;8.858;2022-10-22T04:31:24;15.10;99.90
23124;DHT22;11731;48.592;8.858;2022-10-22T04:33:53;15.20;99.90
23124;DHT22;11731;48.592;8.858;2022-10-22T04:36:21;15.30;99.90
23124;DHT22;11731;48.592;8.858;2022-10-22T04:38:52;15.50;99.90
23124;DHT22;11731;48.592;8.858;2022-10-22T04:41:21;15.60;99.90
23124;DHT22;11731;48.592;8.858;2022-10-22T04:43:48;15.60;99.90
23124;DHT22;11731;48.592;8.858;2022-10-22T04:46:17;15.70;99.90
23124;DHT22;11731;48.592;8.858;2022-10-22T04:48:45;15.90;99.90
23124;DHT22;11731;48.592;8.858;2022-10-22T04:51:15;15.90;99.90
23124;DHT22;11731;48.592;8.858;2022-10-22T04:53:42;15.80;99.90
23124;DHT22;11731;48.592;8.858;2022-10-22T04:56:11;15.70;99.90
23124;DHT22;11731;48.592;8.858;2022-10-22T04:58:38;15.70;99.90
23124;DHT22;11731;48.592;8.858;2022-10-22T05:01:09;15.70;99.90
23124;DHT22;11731;48.592;8.858;2022-10-22T05:03:36;15.90;99.90
23124;DHT22;11731;48.592;8.858;2022-10-22T05:06:05;15.70;99.90
23124;DHT22;11731;48.592;8.858;2022-10-22T05:08:32;15.70;99.90
23124;DHT22;11731;48.592;8.858;2022-10-22T05:10:59;15.70;99.90
23124;DHT22;11731;48.592;8.858;2022-10-22T05:13:26;15.70;99.90
23124;DHT22;11731;48.592;8.858;2022-10-22T05:15:53;15.90;99.90
23124;DHT22;11731;48.592;8.858;2022-10-22T05:18:19;15.70;99.90
23124;DHT22;11731;48.592;8.858;2022-10-22T05:20:46;15.70;99.90
23124;DHT22;11731;48.592;8.858;2022-10-22T05:23:14;15.70;99.90
23124;DHT22;11731;48.592;8.858;2022-10-22T05:25:41;15.50;99.90
23124;DHT22;11731;48.592;8.858;2022-10-22T05:28:08;15.50;99.90
23124;DHT22;11731;48.592;8.858;2022-10-22T05:30:35;15.60;99.90
23124;DHT22;11731;48.592;8.858;2022-10-22T05:33:02;15.50;99.90
23124;DHT22;11731;48.592;8.858;2022-10-22T05:35:29;15.50;99.90
23124;DHT22;11731;48.592;8.858;2022-10-22T05:37:55;15.20;99.90
23124;DHT22;11731;48.592;8.858;2022-10-22T05:40:24;15.10;99.90
23124;DHT22;11731;48.592;8.858;2022-10-22T05:42:51;15.30;99.90
23124;DHT22;11731;48.592;8.858;2022-10-22T05:45:17;15.20;99.90
23124;DHT22;11731;48.592;8.858;2022-10-22T05:47:44;15.20;99.90
23124;DHT22;11731;48.592;8.858;2022-10-22T05:50:11;15.30;99.90
23124;DHT22;11731;48.592;8.858;2022-10-22T05:52:38;15.30;99.90
23124;DHT22;11731;48.592;8.858;2022-10-22T05:55:05;15.30;99.90
23124;DHT22;11731;48.592;8.858;2022-10-22T05:57:33;15.20;99.90
23124;DHT22;11731;48.592;8.858;2022-10-22T06:00:00;15.10;99.90
23124;DHT22;11731;48.592;8.858;2022-10-22T06:02:27;15.30;99.90
23124;DHT22;11731;48.592;8.858;2022-10-22T06:04:54;15.40;99.90
23124;DHT22;11731;48.592;8.858;2022-10-22T06:07:21;15.50;99.90
23124;DHT22;11731;48.592;8.858;2022-10-22T06:09:48;15.60;99.90
23124;DHT22;11731;48.592;8.858;2022-10-22T06:12:15;15.60;99.90
23124;DHT22;11731;48.592;8.858;2022-10-22T06:14:43;15.60;99.90
23124;DHT22;11731;48.592;8.858;2022-10-22T06:17:11;15.70;99.90
23124;DHT22;11731;48.592;8.858;2022-10-22T06:19:38;15.90;99.90
23124;DHT22;11731;48.592;8.858;2022-10-22T06:22:05;15.90;99.90
23124;DHT22;11731;48.592;8.858;2022-10-22T06:24:32;15.80;99.90
23124;DHT22;11731;48.592;8.858;2022-10-22T06:26:59;15.70;99.90
23124;DHT22;11731;48.592;8.858;2022-10-22T06:29:26;15.60;99.90
23124;DHT22;11731;48.592;8.858;2022-10-22T06:31:54;15.70;99.90
23124;DHT22;11731;48.592;8.858;2022-10-22T06:34:21;15.70;99.90
23124;DHT22;11731;48.592;8.858;2022-10-22T06:36:47;15.70;99.90
23124;DHT22;11731;48.592;8.858;2022-10-22T06:39:16;15.70;99.90
23124;DHT22;11731;48.592;8.858;2022-10-22T06:41:43;15.70;99.90
23124;DHT22;11731;48.592;8.858;2022-10-22T06:44:13;15.70;99.90
23124;DHT22;11731;48.592;8.858;2022-10-22T06:46:40;15.80;99.90
23124;DHT22;11731;48.592;8.858;2022-10-22T06:49:11;15.70;99.90
23124;DHT22;11731;48.592;8.858;2022-10-22T06:51:39;15.30;99.90
23124;DHT22;11731;48.592;8.858;2022-10-22T06:54:06;15.30;99.90
23124;DHT22;11731;48.592;8.858;2022-10-22T06:56:33;15.40;99.90
23124;DHT22;11731;48.592;8.858;2022-10-22T06:59:00;15.40;99.90
23124;DHT22;11731;48.592;8.858;2022-10-22T07:01:31;15.60;99.90
23124;DHT22;11731;48.592;8.858;2022-10-22T07:03:59;15.60;99.90
23124;DHT22;11731;48.592;8.858;2022-10-22T07:06:28;15.60;99.90
23124;DHT22;11731;48.592;8.858;2022-10-22T07:08:56;15.80;99.90
23124;DHT22;11731;48.592;8.858;2022-10-22T07:11:25;15.80;99.90
23124;DHT22;11731;48.592;8.858;2022-10-22T07:13:53;15.80;99.90
23124;DHT22;11731;48.592;8.858;2022-10-22T07:16:21;15.90;99.90
23124;DHT22;11731;48.592;8.858;2022-10-22T07:18:48;16.00;99.90
23124;DHT22;11731;48.592;8.858;2022-10-22T07:21:17;16.10;99.90
23124;DHT22;11731;48.592;8.858;2022-10-22T07:23:46;16.10;99.90
23124;DHT22;11731;48.592;8.858;2022-10-22T07:26:14;16.30;99.90
23124;DHT22;11731;48.592;8.858;2022-10-22T07:28:42;16.40;99.90
23124;DHT22;11731;48.592;8.858;2022-10-22T07:31:11;16.60;99.90
23124;DHT22;11731;48.592;8.858;2022-10-22T07:33:38;16.50;99.90
23124;DHT22;11731;48.592;8.858;2022-10-22T07:36:07;16.60;99.90
23124;DHT22;11731;48.592;8.858;2022-10-22T07:38:35;16.70;99.90
23124;DHT22;11731;48.592;8.858;2022-10-22T07:41:04;16.70;99.90
23124;DHT22;11731;48.592;8.858;2022-10-22T07:43:31;16.50;99.90
23124;DHT22;11731;48.592;8.858;2022-10-22T07:45:57;16.50;99.90
23124;DHT22;11731;48.592;8.858;2022-10-22T07:48:25;16.80;99.90
23124;DHT22;11731;48.592;8.858;2022-10-22T07:50:52;17.00;99.90
23124;DHT22;11731;48.592;8.858;2022-10-22T07:53:19;16.90;99.90
23124;DHT22;11731;48.592;8.858;2022-10-22T07:55:47;17.00;99.90
23124;DHT22;11731;48.592;8.858;2022-10-22T07:58:16;17.10;99.90
23124;DHT22;11731;48.592;8.858;2022-10-22T08:00:43;17.20;99.90
23124;DHT22;11731;48.592;8.858;2022-10-22T08:03:11;17.50;99.90
23124;DHT22;11731;48.592;8.858;2022-10-22T08:05:39;17.50;99.90
23124;DHT22;11731;48.592;8.858;2022-10-22T08:08:08;17.60;99.90
23124;DHT22;11731;48.592;8.858;2022-10-22T08:10:36;17.50;99.90
23124;DHT22;11731;48.592;8.858;2022-10-22T08:13:04;17.50;99.90
23124;DHT22;11731;48.592;8.858;2022-10-22T08:15:32;17.50;99.90
23124;DHT22;11731;48.592;8.858;2022-10-22T08:18:00;17.30;99.90
23124;DHT22;11731;48.592;8.858;2022-10-22T08:20:27;17.50;99.90
23124;DHT22;11731;48.592;8.858;2022-10-22T08:22:54;17.60;99.90
23124;DHT22;11731;48.592;8.858;2022-10-22T08:25:21;17.70;99.90
23124;DHT22;11731;48.592;8.858;2022-10-22T08:27:48;17.90;99.90
23124;DHT22;11731;48.592;8.858;2022-10-22T08:30:15;17.50;99.90
23124;DHT22;11731;48.592;8.858;2022-10-22T08:32:45;17.50;99.90
23124;DHT22;11731;48.592;8.858;2022-10-22T08:35:12;17.30;99.90
23124;DHT22;11731;48.592;8.858;2022-10-22T08:37:39;17.00;99.90
23124;DHT22;11731;48.592;8.858;2022-10-22T08:40:08;16.80;99.90
23124;DHT22;11731;48.592;8.858;2022-10-22T08:43:00;16.60;99.90
23124;DHT22;11731;48.592;8.858;2022-10-22T08:45:34;16.70;99.90
23124;DHT22;11731;48.592;8.858;2022-10-22T08:48:15;17.10;99.90
23124;DHT22;11731;48.592;8.858;2022-10-22T08:50:50;17.50;99.90
23124;DHT22;11731;48.592;8.858;2022-10-22T08:53:20;17.80;99.90
23124;DHT22;11731;48.592;8.858;2022-10-22T08:55:48;18.00;99.90
23124;DHT22;11731;48.592;8.858;2022-10-22T08:58:22;18.20;99.90
23124;DHT22;11731;48.592;8.858;2022-10-22T09:00:56;18.30;99.90
23124;DHT22;11731;48.592;8.858;2022-10-22T09:03:37;18.20;99.90
23124;DHT22;11731;48.592;8.858;2022-10-22T09:06:10;18.20;99.90
23124;DHT22;11731;48.592;8.858;2022-10-22T09:08:38;18.20;99.90
23124;DHT22;11731;48.592;8.858;2022-10-22T09:11:14;18.30;99.90
23124;DHT22;11731;48.592;8.858;2022-10-22T09:13:44;18.50;99.90
23124;DHT22;11731;48.592;8.858;2022-10-22T09:16:15;18.50;99.90
23124;DHT22;11731;48.592;8.858;2022-10-22T09:18:52;18.80;99.90
23124;DHT22;11731;48.592;8.858;2022-10-22T09:21:28;18.40;99.90
23124;DHT22;11731;48.592;8.858;2022-10-22T09:24:04;18.40;99.90
23124;DHT22;11731;48.592;8.858;2022-10-22T09:26:35;18.70;99.90
23124;DHT22;11731;48.592;8.858;2022-10-22T09:29:02;19.10;99.90
23124;DHT22;11731;48.592;8.858;2022-10-22T09:31:53;18.90;99.90
23124;DHT22;11731;48.592;8.858;2022-10-22T09:34:25;18.90;99.90
23124;DHT22;11731;48.592;8.858;2022-10-22T09:36:56;18.80;99.90
23124;DHT22;11731;48.592;8.858;2022-10-22T09:39:31;18.80;99.90
23124;DHT22;11731;48.592;8.858;2022-10-22T09:42:00;18.90;99.90
23124;DHT22;11731;48.592;8.858;2022-10-22T09:44:26;19.40;99.90
23124;DHT22;11731;48.592;8.858;2022-10-22T09:47:02;19.70;99.90
23124;DHT22;11731;48.592;8.858;2022-10-22T09:49:33;19.80;99.90
23124;DHT22;11731;48.592;8.858;2022-10-22T09:52:01;19.80;99.90
23124;DHT22;11731;48.592;8.858;2022-10-22T09:54:40;19.30;99.90
23124;DHT22;11731;48.592;8.858;2022-10-22T09:57:13;19.10;99.90
23124;DHT22;11731;48.592;8.858;2022-10-22T09:59:46;19.10;99.90
23124;DHT22;11731;48.592;8.858;2022-10-22T10:02:15;19.00;99.90
23124;DHT22;11731;48.592;8.858;2022-10-22T10:04:46;19.20;99.90
23124;DHT22;11731;48.592;8.858;2022-10-22T10:07:15;19.30;99.90
23124;DHT22;11731;48.592;8.858;2022-10-22T10:09:42;19.20;99.90
23124;DHT22;11731;48.592;8.858;2022-10-22T10:12:20;19.20;99.90
23124;DHT22;11731;48.592;8.858;2022-10-22T10:14:58;19.40;99.90
23124;DHT22;11731;48.592;8.858;2022-10-22T10:17:32;19.70;99.90
23124;DHT22;11731;48.592;8.858;2022-10-22T10:20:14;20.10;99.90
23124;DHT22;11731;48.592;8.858;2022-10-22T10:22:50;19.90;99.90
23124;DHT22;11731;48.592;8.858;2022-10-22T10:25:30;19.80;99.90
23124;DHT22;11731;48.592;8.858;2022-10-22T10:28:18;20.20;99.90
23124;DHT22;11731;48.592;8.858;2022-10-22T10:30:53;20.40;99.90
23124;DHT22;11731;48.592;8.858;2022-10-22T10:33:28;20.40;99.90
23124;DHT22;11731;48.592;8.858;2022-10-22T10:39:15;20.60;99.90
23124;DHT22;11731;48.592;8.858;2022-10-22T10:41:51;20.80;99.90
23124;DHT22;11731;48.592;8.858;2022-10-22T10:44:33;20.90;99.90
23124;DHT22;11731;48.592;8.858;2022-10-22T10:47:12;20.90;99.90
23124;DHT22;11731;48.592;8.858;2022-10-22T10:49:45;21.20;99.90
23124;DHT22;11731;48.592;8.858;2022-10-22T10:52:17;21.40;99.90
23124;DHT22;11731;48.592;8.858;2022-10-22T10:54:56;21.70;99.90
23124;DHT22;11731;48.592;8.858;2022-10-22T10:57:36;22.00;99.90
23124;DHT22;11731;48.592;8.858;2022-10-22T11:00:09;22.40;99.90
23124;DHT22;11731;48.592;8.858;2022-10-22T11:03:28;22.60;99.90
23124;DHT22;11731;48.592;8.858;2022-10-22T11:05:59;22.80;99.90
23124;DHT22;11731;48.592;8.858;2022-10-22T11:08:32;22.20;99.90
23124;DHT22;11731;48.592;8.858;2022-10-22T11:11:04;21.60;99.90
23124;DHT22;11731;48.592;8.858;2022-10-22T11:13:35;21.00;99.90
23124;DHT22;11731;48.592;8.858;2022-10-22T11:16:09;20.90;99.90
23124;DHT22;11731;48.592;8.858;2022-10-22T11:18:41;21.00;99.90
23124;DHT22;11731;48.592;8.858;2022-10-22T11:21:15;21.00;99.90
23124;DHT22;11731;48.592;8.858;2022-10-22T11:23:47;21.00;99.90
23124;DHT22;11731;48.592;8.858;2022-10-22T11:26:28;20.80;99.90
23124;DHT22;11731;48.592;8.858;2022-10-22T11:28:57;20.50;99.90
23124;DHT22;11731;48.592;8.858;2022-10-22T11:31:31;20.40;99.90
23124;DHT22;11731;48.592;8.858;2022-10-22T11:34:13;20.30;99.90
23124;DHT22;11731;48.592;8.858;2022-10-22T11:36:41;20.60;99.90
23124;DHT22;11731;48.592;8.858;2022-10-22T11:39:31;20.70;99.60
23124;DHT22;11731;48.592;8.858;2022-10-22T11:42:05;20.80;99.90
23124;DHT22;11731;48.592;8.858;2022-10-22T11:44:50;20.70;99.90
23124;DHT22;11731;48.592;8.858;2022-10-22T11:47:57;20.60;99.10
23124;DHT22;11731;48.592;8.858;2022-10-22T11:50:26;20.40;99.30
23124;DHT22;11731;48.592;8.858;2022-10-22T11:53:01;20.30;99.90
23124;DHT22;11731;48.592;8.858;2022-10-22T11:55:47;20.20;99.90
23124;DHT22;11731;48.592;8.858;2022-10-22T11:58:48;20.10;99.90
23124;DHT22;11731;48.592;8.858;2022-10-22T12:01:23;20.30;99.50
23124;DHT22;11731;48.592;8.858;2022-10-22T12:03:51;20.50;99.50
23124;DHT22;11731;48.592;8.858;2022-10-22T12:06:25;20.70;99.10
23124;DHT22;11731;48.592;8.858;2022-10-22T12:09:00;20.90;99.20
23124;DHT22;11731;48.592;8.858;2022-10-22T12:11:36;21.20;98.90
23124;DHT22;11731;48.592;8.858;2022-10-22T12:14:17;21.20;99.90
23124;DHT22;11731;48.592;8.858;2022-10-22T12:16:46;21.00;99.90
23124;DHT22;11731;48.592;8.858;2022-10-22T12:19:25;21.30;99.90
23124;DHT22;11731;48.592;8.858;2022-10-22T12:21:54;21.20;99.80
23124;DHT22;11731;48.592;8.858;2022-10-22T12:24:23;21.10;99.90
23124;DHT22;11731;48.592;8.858;2022-10-22T12:26:53;21.20;99.80
23124;DHT22;11731;48.592;8.858;2022-10-22T12:29:26;21.30;98.60
23124;DHT22;11731;48.592;8.858;2022-10-22T12:31:53;21.50;98.00
23124;DHT22;11731;48.592;8.858;2022-10-22T12:34:22;21.50;98.50
23124;DHT22;11731;48.592;8.858;2022-10-22T12:36:52;21.70;99.50
23124;DHT22;11731;48.592;8.858;2022-10-22T12:39:26;21.90;98.30
23124;DHT22;11731;48.592;8.858;2022-10-22T12:42:09;22.00;97.60
23124;DHT22;11731;48.592;8.858;2022-10-22T12:44:39;21.50;97.90
23124;DHT22;11731;48.592;8.858;2022-10-22T12:47:10;21.20;98.00
23124;DHT22;11731;48.592;8.858;2022-10-22T12:49:44;21.30;98.60
23124;DHT22;11731;48.592;8.858;2022-10-22T12:52:15;21.60;98.90
23124;DHT22;11731;48.592;8.858;2022-10-22T12:54:46;21.70;98.60
23124;DHT22;11731;48.592;8.858;2022-10-22T12:57:17;21.60;98.70
23124;DHT22;11731;48.592;8.858;2022-10-22T12:59:50;21.60;97.10
23124;DHT22;11731;48.592;8.858;2022-10-22T13:02:20;21.90;96.90
23124;DHT22;11731;48.592;8.858;2022-10-22T13:05:15;22.40;96.60
23124;DHT22;11731;48.592;8.858;2022-10-22T13:08:00;22.70;96.60
23124;DHT22;11731;48.592;8.858;2022-10-22T13:10:31;22.30;96.20
23124;DHT22;11731;48.592;8.858;2022-10-22T13:12:59;22.50;96.10
23124;DHT22;11731;48.592;8.858;2022-10-22T13:15:38;22.50;95.60
23124;DHT22;11731;48.592;8.858;2022-10-22T13:18:14;22.60;95.40
23124;DHT22;11731;48.592;8.858;2022-10-22T13:20:52;22.60;95.40
23124;DHT22;11731;48.592;8.858;2022-10-22T13:23:22;23.00;95.80
23124;DHT22;11731;48.592;8.858;2022-10-22T13:25:57;22.40;94.20
23124;DHT22;11731;48.592;8.858;2022-10-22T13:28:25;21.60;96.40
23124;DHT22;11731;48.592;8.858;2022-10-22T13:30:55;21.70;96.20
23124;DHT22;11731;48.592;8.858;2022-10-22T13:33:24;21.70;95.80
23124;DHT22;11731;48.592;8.858;2022-10-22T13:35:53;21.20;96.60
23124;DHT22;11731;48.592;8.858;2022-10-22T13:38:22;21.00;97.40
23124;DHT22;11731;48.592;8.858;2022-10-22T13:40:50;21.20;96.50
23124;DHT22;11731;48.592;8.858;2022-10-22T13:43:18;21.30;96.50
23124;DHT22;11731;48.592;8.858;2022-10-22T13:46:17;21.40;96.90
23124;DHT22;11731;48.592;8.858;2022-10-22T13:48:44;21.90;96.20
23124;DHT22;11731;48.592;8.858;2022-10-22T13:51:14;21.90;96.20
23124;DHT22;11731;48.592;8.858;2022-10-22T13:54:33;22.00;96.20
23124;DHT22;11731;48.592;8.858;2022-10-22T13:56:53;22.20;95.40
23124;DHT22;11731;48.592;8.858;2022-10-22T13:59:43;22.00;96.30
23124;DHT22;11731;48.592;8.858;2022-10-22T14:02:12;21.40;96.80
23124;DHT22;11731;48.592;8.858;2022-10-22T14:04:41;21.40;98.00
23124;DHT22;11731;48.592;8.858;2022-10-22T14:09:21;21.60;97.50
23124;DHT22;11731;48.592;8.858;2022-10-22T14:10:18;21.70;97.30
23124;DHT22;11731;48.592;8.858;2022-10-22T14:12:46;21.70;97.40
23124;DHT22;11731;48.592;8.858;2022-10-22T14:15:17;21.40;97.80
23124;DHT22;11731;48.592;8.858;2022-10-22T14:18:13;21.40;98.00
23124;DHT22;11731;48.592;8.858;2022-10-22T14:20:41;21.60;97.80
23124;DHT22;11731;48.592;8.858;2022-10-22T14:23:13;21.70;97.80
23124;DHT22;11731;48.592;8.858;2022-10-22T14:25:41;21.90;97.80
23124;DHT22;11731;48.592;8.858;2022-10-22T14:28:08;22.20;96.90
23124;DHT22;11731;48.592;8.858;2022-10-22T14:31:02;22.60;96.60
23124;DHT22;11731;48.592;8.858;2022-10-22T14:33:31;22.70;96.90
23124;DHT22;11731;48.592;8.858;2022-10-22T14:35:59;22.70;96.90
23124;DHT22;11731;48.592;8.858;2022-10-22T14:38:26;22.80;96.80
23124;DHT22;11731;48.592;8.858;2022-10-22T14:40:53;22.60;97.20
23124;DHT22;11731;48.592;8.858;2022-10-22T14:43:21;22.40;97.30
23124;DHT22;11731;48.592;8.858;2022-10-22T14:45:49;22.40;96.80
23124;DHT22;11731;48.592;8.858;2022-10-22T14:48:16;22.60;96.50
23124;DHT22;11731;48.592;8.858;2022-10-22T14:50:45;22.50;96.50
23124;DHT22;11731;48.592;8.858;2022-10-22T14:53:14;22.40;97.00
23124;DHT22;11731;48.592;8.858;2022-10-22T14:55:41;22.20;97.30
23124;DHT22;11731;48.592;8.858;2022-10-22T14:58:08;21.90;96.60
23124;DHT22;11731;48.592;8.858;2022-10-22T15:00:35;21.70;96.50
23124;DHT22;11731;48.592;8.858;2022-10-22T15:03:03;21.50;96.60
23124;DHT22;11731;48.592;8.858;2022-10-22T15:05:30;21.40;96.60
23124;DHT22;11731;48.592;8.858;2022-10-22T15:08:01;21.30;98.00
23124;DHT22;11731;48.592;8.858;2022-10-22T15:10:28;21.30;97.30
23124;DHT22;11731;48.592;8.858;2022-10-22T15:12:55;21.10;97.80
23124;DHT22;11731;48.592;8.858;2022-10-22T15:15:22;21.10;98.00
23124;DHT22;11731;48.592;8.858;2022-10-22T15:17:56;21.30;98.30
23124;DHT22;11731;48.592;8.858;2022-10-22T15:20:58;21.20;97.80
23124;DHT22;11731;48.592;8.858;2022-10-22T15:23:29;21.10;99.80
23124;DHT22;11731;48.592;8.858;2022-10-22T15:26:10;21.10;99.10
23124;DHT22;11731;48.592;8.858;2022-10-22T15:28:50;21.30;99.30
23124;DHT22;11731;48.592;8.858;2022-10-22T15:31:40;21.40;99.00
23124;DHT22;11731;48.592;8.858;2022-10-22T15:34:07;21.40;99.20
23124;DHT22;11731;48.592;8.858;2022-10-22T15:36:46;21.50;98.50
23124;DHT22;11731;48.592;8.858;2022-10-22T15:39:38;21.60;98.50
23124;DHT22;11731;48.592;8.858;2022-10-22T15:42:05;21.60;98.50
23124;DHT22;11731;48.592;8.858;2022-10-22T15:44:32;21.60;98.40
23124;DHT22;11731;48.592;8.858;2022-10-22T15:46:59;21.60;98.00
23124;DHT22;11731;48.592;8.858;2022-10-22T15:49:28;21.50;98.10
23124;DHT22;11731;48.592;8.858;2022-10-22T15:51:55;21.50;98.70
23124;DHT22;11731;48.592;8.858;2022-10-22T15:54:36;21.40;98.20
23124;DHT22;11731;48.592;8.858;2022-10-22T15:57:03;21.40;98.70
23124;DHT22;11731;48.592;8.858;2022-10-22T15:59:33;21.30;98.40